sensor_id;sensor_type;location;lat;lon;timestamp;pressure;altitude;pressure_sealevel;temperature;humidity
24302;BME280;12421;49.732;20.078;2023-02-07T00:00:33;99126.66;;;-10.93;72.74
24302;BME280;12421;49.732;20.078;2023-02-07T00:33:37;99104.70;;;-10.36;72.45
24302;BME280;12421;49.732;20.078;2023-02-07T00:43:59;99089.30;;;-10.29;72.41
24302;BME280;12421;49.732;20.078;2023-02-07T00:54:16;99059.09;;;-10.32;72.28
24302;BME280;12421;49.732;20.078;2023-02-07T01:04:23;99051.29;;;-10.32;71.63
24302;BME280;12421;49.732;20.078;2023-02-07T01:14:31;99043.74;;;-10.54;70.59
24302;BME280;12421;49.732;20.078;2023-02-07T01:35:14;99042.86;;;-10.87;70.10
24302;BME280;12421;49.732;20.078;2023-02-07T01:45:36;99038.15;;;-11.09;70.36
24302;BME280;12421;49.732;20.078;2023-02-07T01:55:42;99013.11;;;-11.45;69.94
24302;BME280;12421;49.732;20.078;2023-02-07T02:06:00;99011.11;;;-11.99;69.29
24302;BME280;12421;49.732;20.078;2023-02-07T02:26:54;99020.88;;;-13.28;69.93
24302;BME280;12421;49.732;20.078;2023-02-07T02:37:22;99029.12;;;-13.74;69.74
24302;BME280;12421;49.732;20.078;2023-02-07T02:47:52;99038.09;;;-13.96;70.23
24302;BME280;12421;49.732;20.078;2023-02-07T02:58:10;99048.02;;;-13.80;71.69
24302;BME280;12421;49.732;20.078;2023-02-07T03:19:11;99057.69;;;-13.21;73.03
24302;BME280;12421;49.732;20.078;2023-02-07T03:29:40;99058.08;;;-12.86;73.28
24302;BME280;12421;49.732;20.078;2023-02-07T03:39:47;99063.08;;;-12.32;73.53
24302;BME280;12421;49.732;20.078;2023-02-07T03:50:01;99066.95;;;-11.88;73.59
24302;BME280;12421;49.732;20.078;2023-02-07T04:00:19;99057.66;;;-11.44;73.41
24302;BME280;12421;49.732;20.078;2023-02-07T04:10:29;99053.92;;;-11.18;73.03
24302;BME280;12421;49.732;20.078;2023-02-07T04:21:19;99055.29;;;-11.12;73.04
24302;BME280;12421;49.732;20.078;2023-02-07T04:31:22;99053.53;;;-10.98;73.28
24302;BME280;12421;49.732;20.078;2023-02-07T04:41:39;99049.52;;;-10.85;73.47
24302;BME280;12421;49.732;20.078;2023-02-07T04:51:43;99056.51;;;-10.59;73.64
24302;BME280;12421;49.732;20.078;2023-02-07T05:02:22;99053.94;;;-10.16;74.05
24302;BME280;12421;49.732;20.078;2023-02-07T05:12:34;99042.85;;;-9.72;73.51
24302;BME280;12421;49.732;20.078;2023-02-07T05:23:21;99056.17;;;-9.44;73.19
24302;BME280;12421;49.732;20.078;2023-02-07T05:33:50;99062.44;;;-9.36;72.84
24302;BME280;12421;49.732;20.078;2023-02-07T05:44:02;99062.07;;;-9.12;72.66
24302;BME280;12421;49.732;20.078;2023-02-07T05:54:06;99056.54;;;-8.91;72.56
24302;BME280;12421;49.732;20.078;2023-02-07T06:04:39;99065.65;;;-8.62;72.21
24302;BME280;12421;49.732;20.078;2023-02-07T06:14:43;99063.95;;;-8.42;71.39
24302;BME280;12421;49.732;20.078;2023-02-07T06:24:58;99074.29;;;-8.34;71.11
24302;BME280;12421;49.732;20.078;2023-02-07T06:35:04;99087.91;;;-8.48;71.11
24302;BME280;12421;49.732;20.078;2023-02-07T06:45:12;99097.88;;;-8.50;71.90
24302;BME280;12421;49.732;20.078;2023-02-07T06:55:49;99082.48;;;-8.21;71.61
24302;BME280;12421;49.732;20.078;2023-02-07T07:16:18;99070.86;;;-8.07;71.60
24302;BME280;12421;49.732;20.078;2023-02-07T07:26:45;99075.55;;;-7.61;71.77
24302;BME280;12421;49.732;20.078;2023-02-07T07:36:56;99084.33;;;-7.40;71.39
24302;BME280;12421;49.732;20.078;2023-02-07T07:47:09;99086.13;;;-7.19;71.72
24302;BME280;12421;49.732;20.078;2023-02-07T07:57:25;99081.91;;;-7.00;71.28
24302;BME280;12421;49.732;20.078;2023-02-07T08:07:36;99083.11;;;-6.66;71.07
24302;BME280;12421;49.732;20.078;2023-02-07T08:17:46;99066.81;;;-6.19;70.86
24302;BME280;12421;49.732;20.078;2023-02-07T08:27:50;99056.80;;;-5.95;69.95
24302;BME280;12421;49.732;20.078;2023-02-07T08:37:55;99051.27;;;-5.88;69.77
24302;BME280;12421;49.732;20.078;2023-02-07T08:48:01;99038.77;;;-5.76;69.03
24302;BME280;12421;49.732;20.078;2023-02-07T08:58:11;99044.52;;;-5.36;69.46
24302;BME280;12421;49.732;20.078;2023-02-07T09:08:19;99041.23;;;-4.88;68.69
24302;BME280;12421;49.732;20.078;2023-02-07T09:18:26;99042.88;;;-4.68;68.08
24302;BME280;12421;49.732;20.078;2023-02-07T09:28:32;99043.42;;;-4.53;67.77
24302;BME280;12421;49.732;20.078;2023-02-07T09:38:39;99031.40;;;-4.38;67.30
24302;BME280;12421;49.732;20.078;2023-02-07T10:00:06;99016.88;;;-4.40;66.85
24302;BME280;12421;49.732;20.078;2023-02-07T10:09:50;99011.94;;;-4.03;67.46
24302;BME280;12421;49.732;20.078;2023-02-07T10:30:56;99007.13;;;-3.82;67.76
24302;BME280;12421;49.732;20.078;2023-02-07T10:41:16;99008.13;;;-3.69;67.69
24302;BME280;12421;49.732;20.078;2023-02-07T10:51:30;99013.64;;;-3.55;67.76
24302;BME280;12421;49.732;20.078;2023-02-07T11:01:36;99010.26;;;-3.46;67.27
24302;BME280;12421;49.732;20.078;2023-02-07T11:11:54;99003.97;;;-3.27;67.32
24302;BME280;12421;49.732;20.078;2023-02-07T11:22:20;98989.52;;;-3.23;67.40
24302;BME280;12421;49.732;20.078;2023-02-07T11:33:16;98980.61;;;-2.98;68.12
24302;BME280;12421;49.732;20.078;2023-02-07T11:43:20;98979.47;;;-2.61;68.12
24302;BME280;12421;49.732;20.078;2023-02-07T11:54:06;98972.58;;;-2.26;67.88
24302;BME280;12421;49.732;20.078;2023-02-07T12:04:21;98961.56;;;-2.24;67.33
24302;BME280;12421;49.732;20.078;2023-02-07T12:14:37;98943.72;;;-1.84;67.55
24302;BME280;12421;49.732;20.078;2023-02-07T12:24:57;98928.52;;;-1.72;67.26
24302;BME280;12421;49.732;20.078;2023-02-07T12:46:06;98925.77;;;-1.85;67.85
24302;BME280;12421;49.732;20.078;2023-02-07T12:56:46;98940.18;;;-2.00;68.20
24302;BME280;12421;49.732;20.078;2023-02-07T13:28:05;98942.06;;;-2.75;69.34
24302;BME280;12421;49.732;20.078;2023-02-07T13:38:39;98943.39;;;-2.68;69.44
24302;BME280;12421;49.732;20.078;2023-02-07T13:48:59;98933.48;;;-2.91;70.41
24302;BME280;12421;49.732;20.078;2023-02-07T13:59:37;98938.64;;;-2.72;71.18
24302;BME280;12421;49.732;20.078;2023-02-07T14:31:10;98927.62;;;-2.63;72.14
24302;BME280;12421;49.732;20.078;2023-02-07T14:41:40;98922.61;;;-2.75;72.24
24302;BME280;12421;49.732;20.078;2023-02-07T14:52:14;98929.08;;;-2.97;72.61
24302;BME280;12421;49.732;20.078;2023-02-07T15:02:37;98942.35;;;-2.97;73.32
24302;BME280;12421;49.732;20.078;2023-02-07T15:12:46;98936.98;;;-3.02;73.55
24302;BME280;12421;49.732;20.078;2023-02-07T15:23:00;98953.46;;;-2.95;73.96
24302;BME280;12421;49.732;20.078;2023-02-07T15:33:18;98952.52;;;-2.82;74.01
24302;BME280;12421;49.732;20.078;2023-02-07T15:44:00;98947.14;;;-2.90;74.13
24302;BME280;12421;49.732;20.078;2023-02-07T15:54:14;98952.20;;;-2.98;74.56
24302;BME280;12421;49.732;20.078;2023-02-07T16:04:23;98960.38;;;-3.02;74.84
24302;BME280;12421;49.732;20.078;2023-02-07T16:14:44;98977.20;;;-3.06;75.00
24302;BME280;12421;49.732;20.078;2023-02-07T16:24:51;98984.58;;;-3.07;75.17
24302;BME280;12421;49.732;20.078;2023-02-07T16:35:20;98980.34;;;-3.06;75.38
24302;BME280;12421;49.732;20.078;2023-02-07T16:45:36;98983.36;;;-3.07;75.59
24302;BME280;12421;49.732;20.078;2023-02-07T16:55:45;99002.77;;;-3.09;75.74
24302;BME280;12421;49.732;20.078;2023-02-07T17:05:49;99008.46;;;-3.00;76.12
24302;BME280;12421;49.732;20.078;2023-02-07T17:15:54;99007.33;;;-2.90;76.09
24302;BME280;12421;49.732;20.078;2023-02-07T17:26:03;99009.86;;;-2.90;76.14
24302;BME280;12421;49.732;20.078;2023-02-07T17:36:12;99018.69;;;-2.89;76.20
24302;BME280;12421;49.732;20.078;2023-02-07T17:46:23;99021.95;;;-2.73;76.32
24302;BME280;12421;49.732;20.078;2023-02-07T17:56:35;99023.30;;;-2.73;75.91
24302;BME280;12421;49.732;20.078;2023-02-07T18:06:46;99023.39;;;-2.84;76.06
24302;BME280;12421;49.732;20.078;2023-02-07T18:16:55;99041.30;;;-2.83;76.07
24302;BME280;12421;49.732;20.078;2023-02-07T18:27:03;99043.58;;;-2.80;76.29
24302;BME280;12421;49.732;20.078;2023-02-07T18:37:09;99049.63;;;-2.77;76.42
24302;BME280;12421;49.732;20.078;2023-02-07T18:47:20;99045.98;;;-2.73;76.35
24302;BME280;12421;49.732;20.078;2023-02-07T18:57:28;99055.53;;;-2.74;76.35
24302;BME280;12421;49.732;20.078;2023-02-07T19:07:34;99063.48;;;-2.73;76.40
24302;BME280;12421;49.732;20.078;2023-02-07T19:17:57;99065.94;;;-2.66;76.47
24302;BME280;12421;49.732;20.078;2023-02-07T19:28:07;99073.29;;;-2.76;76.27
24302;BME280;12421;49.732;20.078;2023-02-07T19:38:34;99078.35;;;-2.93;76.55
24302;BME280;12421;49.732;20.078;2023-02-07T19:49:26;99083.61;;;-2.87;77.07
24302;BME280;12421;49.732;20.078;2023-02-07T20:00:22;99090.09;;;-2.67;77.10
24302;BME280;12421;49.732;20.078;2023-02-07T20:10:33;99087.20;;;-2.71;76.60
24302;BME280;12421;49.732;20.078;2023-02-07T20:32:07;99102.35;;;-2.78;76.83
24302;BME280;12421;49.732;20.078;2023-02-07T20:42:28;99096.52;;;-2.77;76.97
24302;BME280;12421;49.732;20.078;2023-02-07T20:52:36;99097.77;;;-2.72;77.08
24302;BME280;12421;49.732;20.078;2023-02-07T21:02:42;99097.88;;;-2.83;77.08
24302;BME280;12421;49.732;20.078;2023-02-07T21:12:58;99104.77;;;-2.85;77.28
24302;BME280;12421;49.732;20.078;2023-02-07T21:23:03;99111.84;;;-2.85;77.42
24302;BME280;12421;49.732;20.078;2023-02-07T21:33:08;99110.55;;;-2.83;77.47
24302;BME280;12421;49.732;20.078;2023-02-07T21:43:17;99120.40;;;-2.92;77.53
24302;BME280;12421;49.732;20.078;2023-02-07T21:53:25;99126.45;;;-2.94;77.70
24302;BME280;12421;49.732;20.078;2023-02-07T22:03:31;99128.30;;;-2.87;77.73
24302;BME280;12421;49.732;20.078;2023-02-07T22:13:38;99134.23;;;-2.93;77.77
24302;BME280;12421;49.732;20.078;2023-02-07T22:23:55;99136.80;;;-2.93;77.77
24302;BME280;12421;49.732;20.078;2023-02-07T22:34:40;99129.56;;;-2.98;78.20
24302;BME280;12421;49.732;20.078;2023-02-07T22:44:50;99132.28;;;-2.89;78.33
24302;BME280;12421;49.732;20.078;2023-02-07T22:54:57;99140.52;;;-2.92;78.42
24302;BME280;12421;49.732;20.078;2023-02-07T23:05:03;99137.67;;;-2.93;78.53
24302;BME280;12421;49.732;20.078;2023-02-07T23:15:18;99138.35;;;-2.88;78.63
24302;BME280;12421;49.732;20.078;2023-02-07T23:25:26;99133.80;;;-2.92;78.66
24302;BME280;12421;49.732;20.078;2023-02-07T23:35:30;99129.70;;;-2.82;78.69
24302;BME280;12421;49.732;20.078;2023-02-07T23:45:36;99133.92;;;-2.88;78.43
24302;BME280;12421;49.732;20.078;2023-02-07T23:55:41;99130.66;;;-2.97;78.76
